createdAt,value
2023-08-11T00:00:48.441Z,7.88
2023-08-11T00:06:09.547Z,6.72
2023-08-11T00:11:30.809Z,7.53
2023-08-11T00:16:51.965Z,7.30
2023-08-11T00:22:13.417Z,6.00
2023-08-11T00:27:34.580Z,8.00
2023-08-11T00:32:55.976Z,7.43
2023-08-11T00:38:17.518Z,9.15
2023-08-11T00:43:39.019Z,9.48
2023-08-11T00:49:01.222Z,11.68
2023-08-11T00:54:22.611Z,12.13
2023-08-11T00:59:44.290Z,12.98
2023-08-11T01:05:06.776Z,13.05
2023-08-11T01:10:41.075Z,11.55
2023-08-11T01:16:04.075Z,11.70
2023-08-11T01:21:27.845Z,11.35
2023-08-11T01:26:49.378Z,11.18
2023-08-11T01:32:10.970Z,11.35
2023-08-11T01:37:32.734Z,13.82
2023-08-11T01:42:57.184Z,12.80
2023-08-11T01:48:19.543Z,13.63
2023-08-11T01:53:41.158Z,12.80
2023-08-11T01:59:05.050Z,13.98
2023-08-11T02:09:47.496Z,12.30
2023-08-11T02:15:09.632Z,11.23
2023-08-11T02:20:31.700Z,12.93
2023-08-11T02:25:53.275Z,12.85
2023-08-11T02:31:14.849Z,13.35
2023-08-11T02:36:36.160Z,14.95
2023-08-11T02:41:58.028Z,15.07
2023-08-11T02:47:19.490Z,15.30
2023-08-11T02:52:40.864Z,15.55
2023-08-11T02:58:02.402Z,13.40
2023-08-11T03:03:23.976Z,13.60
2023-08-11T03:08:45.474Z,13.95
2023-08-11T03:14:07.016Z,13.60
2023-08-11T03:19:28.713Z,14.32
2023-08-11T03:24:50.986Z,15.13
2023-08-11T03:30:14.111Z,14.57
2023-08-11T03:35:38.867Z,14.43
2023-08-11T03:41:00.656Z,14.52
2023-08-11T03:46:22.172Z,14.55
2023-08-11T03:51:43.946Z,15.52
2023-08-11T03:57:05.615Z,15.55
2023-08-11T04:02:29.033Z,14.80
2023-08-11T04:07:50.516Z,14.82
2023-08-11T04:13:11.709Z,13.20
2023-08-11T04:18:32.723Z,14.13
2023-08-11T04:23:54.610Z,14.45
2023-08-11T04:29:17.500Z,13.77
2023-08-11T04:34:39.185Z,12.55
2023-08-11T04:40:01.035Z,12.70
2023-08-11T04:45:22.792Z,12.90
2023-08-11T04:50:50.405Z,12.48
2023-08-11T04:56:11.923Z,12.68
2023-08-11T05:01:33.270Z,12.98
2023-08-11T05:06:54.794Z,11.70
2023-08-11T05:12:16.110Z,12.27
2023-08-11T05:17:37.389Z,11.65
2023-08-11T05:22:59.040Z,12.52
2023-08-11T05:28:20.412Z,13.23
2023-08-11T05:33:41.675Z,10.75
2023-08-11T05:39:03.053Z,10.80
2023-08-11T05:44:24.329Z,9.68
2023-08-11T05:49:45.767Z,9.57
2023-08-11T05:55:07.878Z,8.60
2023-08-11T06:00:29.508Z,8.38
2023-08-11T06:05:50.745Z,8.35
2023-08-11T06:11:11.937Z,6.78
2023-08-11T06:16:33.552Z,6.60
2023-08-11T06:21:55.083Z,5.35
2023-08-11T06:27:16.841Z,5.53
2023-08-11T06:32:39.061Z,4.45
2023-08-11T06:38:00.203Z,4.10
2023-08-11T06:43:21.556Z,4.32
2023-08-11T06:48:43.212Z,3.40
2023-08-11T06:54:04.811Z,3.63
2023-08-11T06:59:25.893Z,3.08
2023-08-11T07:04:47.342Z,3.50
2023-08-11T07:10:09.156Z,3.38
2023-08-11T07:15:30.647Z,2.75
2023-08-11T07:20:52.252Z,2.60
2023-08-11T07:26:13.705Z,2.58
2023-08-11T07:31:35.323Z,2.58
2023-08-11T07:36:56.864Z,2.50
2023-08-11T07:42:18.049Z,2.40
2023-08-11T07:47:39.389Z,2.95
2023-08-11T07:53:01.039Z,2.45
2023-08-11T07:58:22.265Z,2.58
2023-08-11T08:09:42.581Z,2.20
2023-08-11T08:15:08.546Z,2.67
2023-08-11T08:20:29.904Z,2.42
2023-08-11T08:25:51.308Z,2.10
2023-08-11T08:31:12.614Z,2.78
2023-08-11T08:36:33.983Z,2.33
2023-08-11T08:41:56.459Z,2.73
2023-08-11T08:52:40.369Z,2.85
2023-08-11T08:58:02.470Z,3.00
2023-08-11T09:03:24.507Z,2.75
2023-08-11T09:08:45.870Z,2.85
2023-08-11T09:14:10.149Z,2.78
2023-08-11T09:19:31.087Z,3.00
2023-08-11T09:24:52.489Z,2.88
2023-08-11T09:30:14.475Z,3.42
2023-08-11T09:35:37.090Z,2.90
2023-08-11T09:41:02.872Z,2.88
2023-08-11T09:46:27.811Z,3.00
2023-08-11T09:51:51.580Z,3.33
2023-08-11T09:57:15.033Z,2.78
2023-08-11T10:02:38.500Z,2.75
2023-08-11T10:08:01.889Z,2.70
2023-08-11T10:13:29.058Z,2.75
2023-08-11T10:18:51.185Z,2.30
2023-08-11T10:24:13.971Z,2.70
2023-08-11T10:29:37.687Z,2.60
2023-08-11T10:34:58.883Z,2.67
2023-08-11T10:40:19.967Z,2.77
2023-08-11T10:45:41.835Z,2.83
2023-08-11T10:51:03.255Z,2.88
2023-08-11T10:56:40.349Z,2.90
2023-08-11T11:02:03.034Z,2.50
2023-08-11T11:07:24.609Z,2.17
2023-08-11T11:12:46.125Z,2.40
2023-08-11T11:18:07.665Z,2.42
2023-08-11T11:23:28.941Z,2.50
2023-08-11T11:28:51.458Z,2.40
2023-08-11T11:34:12.660Z,1.98
2023-08-11T11:39:34.390Z,2.42
2023-08-11T11:44:56.046Z,2.10
2023-08-11T11:50:18.273Z,1.92
2023-08-11T11:55:49.105Z,2.10
2023-08-11T12:01:23.737Z,1.73
2023-08-11T12:06:44.823Z,2.03
2023-08-11T12:12:06.921Z,2.38
2023-08-11T12:17:35.645Z,1.98
2023-08-11T12:22:56.952Z,2.13
2023-08-11T12:28:18.123Z,2.07
2023-08-11T12:33:39.910Z,2.13
2023-08-11T12:39:01.217Z,1.85
2023-08-11T12:44:22.201Z,1.77
2023-08-11T12:49:43.332Z,1.95
2023-08-11T12:55:04.957Z,1.88
2023-08-11T13:05:47.058Z,2.00
2023-08-11T13:11:08.315Z,2.22
2023-08-11T13:16:29.451Z,1.98
2023-08-11T13:21:50.584Z,1.90
2023-08-11T13:27:11.990Z,2.38
2023-08-11T13:32:33.385Z,2.13
2023-08-11T13:37:54.778Z,2.00
2023-08-11T13:43:16.208Z,1.98
2023-08-11T13:48:37.382Z,2.00
2023-08-11T13:53:58.624Z,1.90
2023-08-11T13:59:19.811Z,1.98
2023-08-11T14:04:41.262Z,2.10
2023-08-11T14:10:02.857Z,2.30
2023-08-11T14:15:24.026Z,2.10
2023-08-11T14:20:45.593Z,2.10
2023-08-11T14:26:07.429Z,2.10
2023-08-11T14:31:28.753Z,2.38
2023-08-11T14:36:50.223Z,2.05
2023-08-11T14:42:11.548Z,2.20
2023-08-11T14:47:33.397Z,2.42
2023-08-11T14:52:54.969Z,2.28
2023-08-11T14:58:16.289Z,2.10
2023-08-11T15:03:43.807Z,2.45
2023-08-11T15:09:05.250Z,2.42
2023-08-11T15:14:26.314Z,1.90
2023-08-11T15:19:47.556Z,2.30
2023-08-11T15:25:09.798Z,2.10
2023-08-11T15:35:52.381Z,2.33
2023-08-11T15:41:13.681Z,2.40
2023-08-11T15:46:34.939Z,2.38
2023-08-11T15:51:56.822Z,2.40
2023-08-11T15:57:18.362Z,2.45
2023-08-11T16:02:39.766Z,2.22
2023-08-11T16:08:01.351Z,2.87
2023-08-11T16:13:22.491Z,2.88
2023-08-11T16:18:44.079Z,3.53
2023-08-11T16:24:06.144Z,2.58
2023-08-11T16:29:27.441Z,2.28
2023-08-11T16:34:48.766Z,2.67
2023-08-11T16:40:11.205Z,2.50
2023-08-11T16:45:33.298Z,2.53
2023-08-11T16:50:54.554Z,2.70
2023-08-11T16:56:15.905Z,2.50
2023-08-11T17:01:37.474Z,2.67
2023-08-11T17:06:58.860Z,2.40
2023-08-11T17:12:19.980Z,2.25
2023-08-11T17:17:41.129Z,2.72
2023-08-11T17:23:02.799Z,2.78
2023-08-11T17:28:24.398Z,3.00
2023-08-11T17:33:45.662Z,3.38
2023-08-11T17:39:07.101Z,2.65
2023-08-11T17:44:28.128Z,3.10
2023-08-11T17:49:49.985Z,2.92
2023-08-11T17:55:11.133Z,2.80
2023-08-11T18:00:32.817Z,2.50
2023-08-11T18:05:54.049Z,2.53
2023-08-11T18:11:15.105Z,2.88
2023-08-11T18:16:36.198Z,2.85
2023-08-11T18:21:57.768Z,2.65
2023-08-11T18:27:19.105Z,2.85
2023-08-11T18:32:40.772Z,4.85
2023-08-11T18:38:03.692Z,5.70
2023-08-11T18:43:26.160Z,5.20
2023-08-11T18:48:47.256Z,4.07
2023-08-11T18:54:08.500Z,5.00
2023-08-11T18:59:29.646Z,5.25
2023-08-11T19:04:50.942Z,4.53
2023-08-11T19:10:12.356Z,5.78
2023-08-11T19:15:33.504Z,4.75
2023-08-11T19:20:56.906Z,5.10
2023-08-11T19:26:18.072Z,5.03
2023-08-11T19:31:39.576Z,5.10
2023-08-11T19:37:01.012Z,4.95
2023-08-11T19:42:22.161Z,5.70
2023-08-11T19:47:43.440Z,5.60
2023-08-11T19:53:05.046Z,4.90
2023-08-11T19:58:26.453Z,4.75
2023-08-11T20:03:47.596Z,4.70
2023-08-11T20:09:08.766Z,4.45
2023-08-11T20:14:30.036Z,5.45
2023-08-11T20:19:51.253Z,4.45
2023-08-11T20:25:12.941Z,4.28
2023-08-11T20:30:35.234Z,4.85
2023-08-11T20:35:56.425Z,4.25
2023-08-11T20:41:17.666Z,4.82
2023-08-11T20:46:39.339Z,5.10
2023-08-11T20:52:00.818Z,4.63
2023-08-11T20:57:21.920Z,4.28
2023-08-11T21:02:43.130Z,4.35
2023-08-11T21:08:05.196Z,3.75
2023-08-11T21:13:26.520Z,3.60
2023-08-11T21:18:47.710Z,3.80
2023-08-11T21:24:09.073Z,3.38
2023-08-11T21:29:30.252Z,3.55
2023-08-11T21:34:51.646Z,4.10
2023-08-11T21:40:12.888Z,3.50
2023-08-11T21:45:34.073Z,3.08
2023-08-11T21:50:55.621Z,3.45
2023-08-11T21:56:16.794Z,3.65
2023-08-11T22:01:39.318Z,3.38
2023-08-11T22:07:00.699Z,3.38
2023-08-11T22:12:21.981Z,3.25
2023-08-11T22:17:44.548Z,3.00
2023-08-11T22:23:05.940Z,3.10
2023-08-11T22:28:27.162Z,3.20
2023-08-11T22:33:48.187Z,3.65
2023-08-11T22:39:09.572Z,3.75
2023-08-11T22:44:31.155Z,3.70
2023-08-11T22:49:52.353Z,3.72
2023-08-11T22:55:13.836Z,3.55
2023-08-11T23:00:35.018Z,4.00
2023-08-11T23:05:56.472Z,3.83
2023-08-11T23:11:17.847Z,4.50
2023-08-11T23:16:39.095Z,3.88
2023-08-11T23:22:00.342Z,4.35
2023-08-11T23:27:21.851Z,4.15
2023-08-11T23:32:43.027Z,4.32
2023-08-11T23:38:04.382Z,4.03
2023-08-11T23:43:25.682Z,4.00
2023-08-11T23:48:46.840Z,4.82
2023-08-11T23:54:08.421Z,4.50
2023-08-11T23:59:29.492Z,4.22
